Time;durP1;ratioP1;P1;durP2;ratioP2;P2;SDS_P1;SDS_P2;PMS_P1;PMS_P2;Temp;Humidity;BMP_temperature;BMP_pressure;BME280_temperature;BME280_humidity;BME280_pressure;Samples;Min_cycle;Max_cycle;Signal;HPM_P1;HPM_P2
2022/12/04 00:01:26;;;;;;;26.03;12.50;;;2.70;98.20;;;6.44;53.26;97280.56;5003514;28;20050;-60
2022/12/04 00:03:58;;;;;;;33.63;15.37;;;2.80;98.00;;;6.40;53.40;97287.94;5003606;28;20054;-60
2022/12/04 00:06:27;;;;;;;30.57;14.73;;;2.80;98.00;;;6.40;53.60;97285.28;4997270;28;20060;-60
2022/12/04 00:08:55;;;;;;;29.80;13.50;;;2.80;98.50;;;6.45;53.77;97274.25;5004036;28;20050;-60
2022/12/04 00:11:28;;;;;;;26.10;13.93;;;2.80;98.30;;;6.44;53.71;97284.03;4996523;28;20340;-60
2022/12/04 00:13:57;;;;;;;24.87;12.97;;;2.80;97.90;;;6.43;53.16;97271.75;5004384;28;20349;-60
2022/12/04 00:16:33;;;;;;;33.33;14.67;;;2.80;97.10;;;6.40;53.47;97273.88;5003921;28;20046;-60
2022/12/04 00:19:01;;;;;;;27.60;12.80;;;2.70;97.70;;;6.40;53.20;97264.13;5003222;28;20051;-60
2022/12/04 00:21:30;;;;;;;27.40;14.40;;;2.80;98.20;;;6.39;54.02;97273.03;5003165;28;20058;-60
2022/12/04 00:23:58;;;;;;;28.43;12.97;;;2.80;97.80;;;6.41;53.39;97271.06;5004244;28;20051;-60
2022/12/04 00:26:29;;;;;;;26.20;14.57;;;2.80;98.20;;;6.46;53.52;97255.63;5004450;28;20042;-60
2022/12/04 00:28:58;;;;;;;30.83;15.43;;;2.80;98.00;;;6.47;53.91;97257.25;5003777;28;20050;-60
2022/12/04 00:31:29;;;;;;;26.63;13.63;;;2.80;98.00;;;6.46;53.69;97254.78;5003960;28;20042;-60
2022/12/04 00:33:58;;;;;;;24.17;13.67;;;2.80;97.20;;;6.41;53.91;97260.50;5003156;28;20054;-60
2022/12/04 00:36:28;;;;;;;22.27;11.40;;;2.70;98.00;;;6.41;53.36;97254.38;5002804;28;20048;-60
2022/12/04 00:38:59;;;;;;;23.80;11.90;;;2.70;97.90;;;6.38;54.05;97252.00;5002850;28;20050;-60
2022/12/04 00:41:30;;;;;;;22.10;11.30;;;2.80;97.20;;;6.40;53.58;97258.84;5002700;28;20046;-60
2022/12/04 00:44:02;;;;;;;25.50;12.63;;;2.80;97.70;;;6.40;53.38;97244.78;5002752;28;20054;-60
2022/12/04 00:46:30;;;;;;;21.97;11.47;;;2.80;97.20;;;6.38;53.88;97255.50;5002758;28;20380;-60
2022/12/04 00:49:01;;;;;;;23.83;12.37;;;2.90;97.20;;;6.40;53.48;97255.38;5002445;28;20057;-61
2022/12/04 00:51:29;;;;;;;26.40;13.10;;;2.90;97.60;;;6.44;53.22;97246.16;5002352;28;20047;-60
2022/12/04 00:53:57;;;;;;;21.10;11.03;;;2.80;97.60;;;6.47;53.81;97259.09;5003670;28;20050;-60
2022/12/04 00:56:27;;;;;;;27.30;12.53;;;2.80;97.50;;;6.45;53.84;97263.69;4994761;28;20056;-60
2022/12/04 00:58:58;;;;;;;24.33;12.07;;;2.80;97.70;;;6.44;53.96;97264.69;5003458;28;20054;-60
2022/12/04 01:01:27;;;;;;;24.67;12.97;;;2.80;98.40;;;6.45;53.53;97251.28;4994672;28;20280;-60
2022/12/04 01:03:56;;;;;;;24.07;11.93;;;2.80;97.90;;;6.45;53.53;97253.94;5003334;28;20045;-60
2022/12/04 01:06:29;;;;;;;28.83;11.63;;;2.80;97.80;;;6.48;53.22;97255.47;5002231;28;20057;-60
2022/12/04 01:08:59;;;;;;;27.20;12.43;;;2.80;98.10;;;6.49;53.36;97255.34;5003339;28;20356;-60
2022/12/04 01:11:29;;;;;;;22.63;11.77;;;2.80;98.00;;;6.49;53.09;97244.75;4994577;28;20352;-60
2022/12/04 01:13:59;;;;;;;25.23;13.63;;;2.90;98.10;;;6.49;53.20;97234.19;5003581;28;20054;-60
2022/12/04 01:16:37;;;;;;;26.37;12.47;;;2.90;98.20;;;6.49;54.09;97247.41;4994642;28;20048;-60
2022/12/04 01:19:09;;;;;;;22.53;10.93;;;2.90;98.10;;;6.52;53.46;97250.75;5002843;28;20049;-60
2022/12/04 01:21:38;;;;;;;29.87;13.40;;;2.90;98.40;;;6.53;53.64;97241.81;5003190;28;20232;-60
2022/12/04 01:24:07;;;;;;;22.20;10.97;;;2.90;98.10;;;6.53;54.01;97240.00;5001910;28;20054;-60
2022/12/04 01:26:35;;;;;;;26.67;13.30;;;2.90;98.20;;;6.55;54.12;97245.13;5002072;28;20054;-60
2022/12/04 01:29:03;;;;;;;27.47;11.97;;;3.00;98.60;;;6.52;54.02;97232.22;5002604;28;20053;-60
2022/12/04 01:31:31;;;;;;;24.40;11.53;;;2.90;98.10;;;6.53;53.81;97236.50;5002811;28;20050;-60
2022/12/04 01:33:59;;;;;;;28.27;11.70;;;2.90;98.60;;;6.54;53.90;97244.31;5001854;28;20271;-60
2022/12/04 01:36:27;;;;;;;24.00;13.20;;;2.90;98.80;;;6.53;53.54;97240.00;4994151;28;20372;-60
2022/12/04 01:38:56;;;;;;;24.37;12.20;;;2.90;99.00;;;6.54;53.45;97243.50;5002721;28;20042;-60
2022/12/04 01:41:28;;;;;;;25.93;12.67;;;2.90;99.20;;;6.54;54.27;97259.34;5002478;28;20046;-60
2022/12/04 01:44:12;;;;;;;25.13;11.67;;;2.80;99.40;;;6.51;53.50;97249.88;5003114;28;20060;-60
2022/12/04 01:46:42;;;;;;;24.00;11.88;;;2.80;99.50;;;6.54;54.15;97243.50;4996838;28;20050;-60
2022/12/04 01:49:44;;;;;;;31.07;14.20;;;2.80;99.30;;;6.49;54.35;97250.06;5000764;28;20050;-60
2022/12/04 01:52:23;;;;;;;24.60;11.37;;;2.90;99.40;;;6.47;53.97;97246.69;5002309;28;20044;-60
2022/12/04 01:54:59;;;;;;;24.00;13.00;;;2.90;98.90;;;6.49;53.92;97246.53;5001705;28;20054;-60
2022/12/04 01:57:31;;;;;;;24.77;14.07;;;2.90;99.40;;;6.48;54.28;97245.72;5001562;28;20047;-61
2022/12/04 02:00:11;;;;;;;28.20;13.83;;;2.80;99.30;;;6.48;53.71;97243.09;5000828;28;20368;-60
2022/12/04 02:02:43;;;;;;;30.70;15.87;;;2.90;99.70;;;6.51;54.21;97234.00;4995456;28;20064;-60
2022/12/04 02:05:19;;;;;;;28.03;14.93;;;2.90;99.70;;;6.55;54.04;97237.19;5001607;28;20080;-60
2022/12/04 02:07:52;;;;;;;32.63;16.33;;;2.90;99.40;;;6.54;53.73;97240.84;5001539;28;20050;-60
2022/12/04 02:10:26;;;;;;;32.73;16.53;;;2.90;99.50;;;6.55;53.66;97240.66;5000801;28;20252;-60
2022/12/04 02:13:17;;;;;;;43.28;17.33;;;2.90;99.60;;;6.53;54.31;97253.22;4999575;28;20062;-60
2022/12/04 02:16:11;;;;;;;32.00;14.10;;;2.90;99.10;;;6.49;53.56;97257.97;4996006;28;20372;-60
2022/12/04 02:18:45;;;;;;;;;;;2.80;99.60;;;6.47;54.34;97257.25;4996417;28;20050;-60
2022/12/04 02:21:18;;;;;;;23.00;12.17;;;2.80;99.50;;;6.53;53.88;97239.16;5001083;28;19924;-60
2022/12/04 02:24:08;;;;;;;25.55;11.77;;;2.80;99.90;;;6.52;54.15;97234.88;5001226;28;20050;-60
2022/12/04 02:26:45;;;;;;;23.87;11.83;;;2.80;99.90;;;6.53;54.17;97236.50;4995791;28;20114;-60
2022/12/04 02:29:51;;;;;;;31.50;14.73;;;2.80;99.90;;;6.47;53.71;97237.94;5001851;28;20050;-60
2022/12/04 02:32:54;;;;;;;28.20;14.43;;;2.80;99.70;;;6.45;53.95;97230.13;5002110;28;20254;-60
2022/12/04 02:35:48;;;;;;;33.67;16.33;;;2.80;99.50;;;6.49;54.10;97228.03;5001032;28;20226;-60
2022/12/04 02:38:29;;;;;;;34.07;16.07;;;2.80;99.90;;;6.52;53.94;97227.75;5001418;28;20057;-60
2022/12/04 02:41:11;;;;;;;30.50;13.43;;;2.80;99.90;;;6.52;53.84;97225.13;5001343;28;20046;-60
2022/12/04 02:43:46;;;;;;;37.40;18.83;;;2.90;99.90;;;6.52;53.75;97214.53;5001096;28;20046;-60
2022/12/04 02:46:41;;;;;;;36.37;18.90;;;3.00;99.90;;;6.46;54.46;97218.59;5001905;28;20113;-60
2022/12/04 02:49:22;;;;;;;;;;;3.00;99.40;;;6.45;54.20;97221.38;4985325;28;20057;-60
2022/12/04 02:51:53;;;;;;;32.20;15.77;;;2.90;98.80;;;6.53;54.15;97220.66;5001061;28;20120;-60
2022/12/04 02:54:38;;;;;;;32.00;16.83;;;2.80;99.70;;;6.50;53.95;97216.50;5000713;28;20240;-60
2022/12/04 02:57:13;;;;;;;30.77;15.27;;;2.90;99.90;;;6.53;54.27;97224.13;5000958;28;20197;-60
2022/12/04 02:59:45;;;;;;;32.80;16.10;;;2.90;99.90;;;6.54;54.45;97215.22;5000671;28;20352;-60
2022/12/04 03:02:44;;;;;;;33.90;15.27;;;2.90;99.90;;;6.54;54.03;97220.50;5001220;28;20038;-60
2022/12/04 03:05:18;;;;;;;32.80;16.50;;;2.90;99.90;;;6.57;53.85;97204.34;5004527;28;20244;-60
2022/12/04 03:07:57;;;;;;;31.77;14.23;;;2.90;99.80;;;6.56;53.92;97218.56;5004450;28;20054;-60
2022/12/04 03:10:43;;;;;;;26.33;13.10;;;2.90;99.90;;;6.53;53.98;97225.94;5004202;28;20256;-60
2022/12/04 03:13:17;;;;;;;25.67;12.57;;;2.90;99.90;;;6.55;54.14;97218.69;5005422;28;20352;-60
2022/12/04 03:16:01;;;;;;;29.70;14.20;;;2.90;99.90;;;6.57;54.45;97214.09;5003665;28;20038;-60
2022/12/04 03:18:37;;;;;;;31.50;15.50;;;2.90;99.90;;;6.58;53.97;97218.41;5004318;28;20042;-60
2022/12/04 03:21:16;;;;;;;27.70;14.23;;;2.90;99.90;;;6.57;54.86;97204.34;5003747;28;20053;-60
2022/12/04 03:24:26;;;;;;;24.53;13.27;;;3.00;99.90;;;6.55;54.04;97208.94;4998975;28;20058;-60
2022/12/04 03:27:13;;;;;;;23.90;10.83;;;3.00;99.80;;;6.59;54.65;97196.25;4999306;28;20050;-60
2022/12/04 03:30:06;;;;;;;21.20;11.20;;;3.00;99.90;;;6.55;54.07;97198.34;4996998;28;20056;-60
2022/12/04 03:33:14;;;;;;;29.20;15.63;;;3.00;99.90;;;6.54;54.97;97195.88;4996466;28;20038;-60
2022/12/04 03:35:54;;;;;;;26.07;13.53;;;3.00;99.90;;;6.54;54.61;97201.16;4997324;28;20072;-60
2022/12/04 03:39:05;;;;;;;30.37;15.17;;;3.00;99.90;;;6.48;54.45;97198.13;5003615;28;20053;-60
2022/12/04 03:42:00;;;;;;;25.53;14.23;;;3.00;99.70;;;6.49;54.62;97194.50;4979957;28;20050;-60
2022/12/04 03:44:30;;;;;;;;;;;3.00;99.90;;;6.52;53.92;97189.91;5005295;28;20058;-60
2022/12/04 03:47:23;;;;;;;22.60;11.60;;;3.00;99.90;;;6.50;54.75;97182.13;5020469;28;19932;-60
2022/12/04 03:50:01;;;;;;;22.73;11.60;;;2.90;99.90;;;6.52;54.16;97180.16;5003565;28;20246;-60
2022/12/04 03:52:45;;;;;;;27.67;15.27;;;2.90;99.90;;;6.52;54.42;97181.97;5004525;28;20058;-60
2022/12/04 03:55:21;;;;;;;22.38;13.30;;;3.00;99.90;;;6.55;54.03;97184.31;5003602;28;20061;-59
2022/12/04 03:57:51;;;;;;;23.10;12.57;;;3.00;99.90;;;6.57;54.82;97182.34;5003680;28;20064;-60
2022/12/04 04:00:22;;;;;;;26.70;12.83;;;3.00;99.90;;;6.59;54.56;97185.69;4987215;28;20066;-60
2022/12/04 04:03:24;;;;;;;23.27;12.00;;;3.00;99.90;;;6.57;54.60;97185.84;5004921;28;20050;-60
2022/12/04 04:06:01;;;;;;;22.80;11.87;;;3.00;99.90;;;6.63;54.49;97192.34;4994590;28;20050;-60
2022/12/04 04:08:36;;;;;;;26.20;12.67;;;3.00;99.90;;;6.63;54.46;97197.63;5003380;28;20263;-60
2022/12/04 04:11:25;;;;;;;23.47;11.87;;;3.00;99.90;;;6.60;54.82;97190.00;5003142;28;20048;-60
2022/12/04 04:25:46;;;;;;;23.63;11.63;;;3.00;99.90;;;6.61;54.46;97202.22;5003244;28;20056;-60
2022/12/04 04:28:41;;;;;;;26.47;10.77;;;3.00;99.90;;;6.54;54.74;97203.81;5003014;28;20050;-60
2022/12/04 04:31:29;;;;;;;19.60;10.23;;;3.00;99.90;;;6.57;54.60;97216.72;5002698;28;20228;-60
2022/12/04 04:34:21;;;;;;;19.63;10.57;;;2.90;99.90;;;6.56;54.76;97223.84;4998838;28;20048;-60
2022/12/04 04:37:49;;;;;;;23.73;12.43;;;2.90;99.90;;;6.48;54.96;97221.09;4997838;28;20038;-60
2022/12/04 04:40:32;;;;;;;22.07;11.27;;;2.90;99.90;;;6.49;54.72;97215.66;5001005;28;20054;-60
2022/12/04 04:43:38;;;;;;;24.50;12.20;;;2.80;99.90;;;6.50;54.70;97211.22;5002510;28;20050;-60
2022/12/04 04:46:14;;;;;;;24.13;12.43;;;2.90;99.90;;;6.59;54.47;97220.91;4999673;28;20061;-60
2022/12/04 04:48:49;;;;;;;18.47;10.73;;;3.00;99.90;;;6.60;54.23;97216.44;4996183;28;20042;-60
2022/12/04 04:51:18;;;;;;;25.37;11.47;;;3.00;99.90;;;6.60;54.42;97214.63;5001864;28;20046;-60
2022/12/04 04:53:58;;;;;;;23.60;11.73;;;3.00;99.90;;;6.62;54.31;97206.56;5002677;28;20034;-60
2022/12/04 04:56:26;;;;;;;25.43;12.17;;;3.00;99.90;;;6.64;54.55;97205.41;5002490;28;20050;-60
2022/12/04 04:58:54;;;;;;;22.13;11.07;;;3.00;99.90;;;6.65;54.61;97208.88;5002317;28;20038;-61
2022/12/04 05:01:27;;;;;;;26.00;13.03;;;3.00;99.90;;;6.65;54.96;97211.53;5003171;28;20049;-60
2022/12/04 05:03:55;;;;;;;26.23;13.27;;;3.00;99.90;;;6.65;54.54;97209.75;5002442;28;20264;-60
2022/12/04 05:06:23;;;;;;;27.17;12.10;;;3.10;99.90;;;6.65;54.95;97204.44;5002273;28;20046;-60
2022/12/04 05:08:50;;;;;;;25.20;11.90;;;3.10;99.90;;;6.63;55.21;97208.19;5003394;28;20046;-60
2022/12/04 05:11:18;;;;;;;24.03;12.73;;;3.10;99.90;;;6.60;55.09;97208.50;5003059;28;20355;-60
2022/12/04 05:13:46;;;;;;;23.97;12.93;;;3.00;99.90;;;6.60;54.29;97211.16;5002324;28;20046;-60
2022/12/04 05:16:15;;;;;;;29.20;14.03;;;3.10;99.90;;;6.58;54.68;97207.84;5001920;28;20240;-60
2022/12/04 05:21:32;;;;;;;27.50;12.93;;;3.10;99.90;;;6.58;54.57;97211.31;5003121;28;20360;-60
2022/12/04 05:24:00;;;;;;;25.97;13.87;;;3.10;99.90;;;6.58;54.58;97208.66;5002268;28;20052;-60
2022/12/04 05:26:28;;;;;;;26.47;12.87;;;3.10;99.90;;;6.58;54.42;97213.94;5001463;28;20050;-60
2022/12/04 05:28:55;;;;;;;29.63;14.10;;;3.10;99.90;;;6.60;54.18;97214.63;5003288;28;20230;-60
2022/12/04 05:31:23;;;;;;;29.17;13.73;;;3.10;99.90;;;6.63;54.37;97210.84;5003079;28;20057;-60
2022/12/04 05:33:51;;;;;;;29.87;14.67;;;3.00;99.90;;;6.62;54.37;97207.38;5002044;28;20046;-60
2022/12/04 05:36:19;;;;;;;25.53;13.23;;;3.00;99.90;;;6.62;54.84;97212.66;5001708;28;20046;-60
2022/12/04 05:38:47;;;;;;;29.77;14.20;;;3.00;99.90;;;6.63;54.59;97203.78;5002996;28;20042;-60
2022/12/04 05:41:14;;;;;;;32.97;15.33;;;3.00;99.90;;;6.65;54.42;97208.88;5001499;28;20337;-60
2022/12/04 05:43:42;;;;;;;29.23;14.00;;;3.00;99.90;;;6.69;54.92;97207.63;5003190;28;20057;-60
2022/12/04 05:46:10;;;;;;;30.70;15.23;;;3.10;99.90;;;6.70;54.74;97206.66;5001838;28;20050;-60
2022/12/04 05:48:38;;;;;;;30.77;15.43;;;3.10;99.90;;;6.73;54.27;97192.28;5001756;28;20050;-60
2022/12/04 05:51:08;;;;;;;27.23;14.17;;;3.10;99.90;;;6.74;54.37;97201.91;5001021;28;20050;-60
2022/12/04 05:53:37;;;;;;;33.23;16.77;;;3.10;99.90;;;6.70;54.76;97207.47;5002587;28;20046;-60
2022/12/04 05:56:06;;;;;;;28.43;14.53;;;3.10;99.90;;;6.71;54.73;97213.63;5003228;28;20056;-60
2022/12/04 05:58:36;;;;;;;25.57;14.27;;;3.00;99.90;;;6.68;54.68;97204.13;5002643;28;20038;-60
2022/12/04 06:01:14;;;;;;;26.17;14.63;;;3.00;99.90;;;6.69;54.84;97213.75;5002378;28;20046;-60
2022/12/04 06:03:42;;;;;;;25.60;14.03;;;3.10;99.90;;;6.68;54.42;97201.50;5001633;28;20042;-60
2022/12/04 06:06:14;;;;;;;30.50;15.87;;;3.10;99.90;;;6.67;54.48;97202.50;5002486;28;20046;-60
2022/12/04 06:08:53;;;;;;;22.37;13.13;;;3.10;99.90;;;6.67;54.75;97202.50;5001534;28;20048;-59
2022/12/04 06:11:28;;;;;;;23.35;12.98;;;3.00;99.90;;;6.67;54.63;97206.97;5001185;28;20052;-60
2022/12/04 06:13:58;;;;;;;23.17;13.60;;;3.00;99.90;;;6.65;54.38;97209.75;5001412;28;20046;-60
2022/12/04 06:16:36;;;;;;;25.27;14.37;;;3.00;99.90;;;6.66;54.15;97211.38;5001349;28;20061;-60
2022/12/04 06:19:11;;;;;;;23.10;13.00;;;3.00;99.90;;;6.64;54.33;97213.34;5002551;28;20046;-60
2022/12/04 06:21:42;;;;;;;26.13;13.93;;;3.00;99.90;;;6.65;54.58;97211.53;5001401;28;20234;-60
2022/12/04 06:24:18;;;;;;;27.03;13.53;;;3.10;99.90;;;6.67;55.02;97214.88;5000716;28;20081;-60
2022/12/04 06:26:47;;;;;;;26.63;14.60;;;3.10;99.90;;;6.70;54.06;97219.88;4993987;28;20046;-60
2022/12/04 06:29:34;;;;;;;26.33;14.70;;;3.10;99.90;;;6.70;54.74;97212.75;5001802;28;20062;-60
2022/12/04 06:32:03;;;;;;;29.33;14.70;;;3.10;99.90;;;6.68;54.26;97209.44;5002391;28;20050;-60
2022/12/04 06:34:31;;;;;;;25.10;12.63;;;3.00;99.90;;;6.68;54.10;97209.44;5017238;28;20042;-60
2022/12/04 06:36:59;;;;;;;28.20;13.77;;;3.00;99.90;;;6.70;54.24;97212.75;5018854;28;20038;-60
2022/12/04 06:39:27;;;;;;;28.17;13.70;;;3.00;99.90;;;6.72;54.09;97209.97;5005676;28;20051;-60
2022/12/04 06:41:54;;;;;;;26.20;12.63;;;3.10;99.90;;;6.71;54.54;97210.97;5006321;28;20042;-60
2022/12/04 06:44:22;;;;;;;23.10;12.03;;;3.10;99.90;;;6.69;54.66;97205.00;5005694;28;20261;-60
2022/12/04 06:46:50;;;;;;;25.77;14.23;;;3.20;99.80;;;6.70;54.20;97204.00;5005333;28;20057;-60
2022/12/04 06:49:21;;;;;;;25.90;14.10;;;3.10;99.80;;;6.70;54.35;97204.00;5005603;28;20045;-60
2022/12/04 06:51:49;;;;;;;30.37;14.80;;;3.10;99.90;;;6.72;54.31;97209.97;5005414;28;20052;-60
2022/12/04 06:54:17;;;;;;;24.67;13.80;;;3.10;99.90;;;6.70;54.18;97207.47;5006057;28;20181;-60
2022/12/04 06:56:45;;;;;;;29.93;15.40;;;3.10;99.90;;;6.69;54.84;97205.81;4997445;28;20052;-60
2022/12/04 06:59:13;;;;;;;26.77;14.73;;;3.00;99.90;;;6.72;54.79;97212.63;5020552;28;20042;-60
2022/12/04 07:01:41;;;;;;;24.93;13.73;;;3.10;99.90;;;6.74;54.22;97217.75;5005490;28;20049;-60
2022/12/04 07:04:09;;;;;;;28.47;12.53;;;3.10;99.90;;;6.74;54.71;97210.66;5006073;28;20050;-60
2022/12/04 07:06:38;;;;;;;24.30;13.77;;;3.10;99.90;;;6.76;54.37;97216.63;5005580;28;20060;-60
2022/12/04 07:09:15;;;;;;;25.07;14.07;;;3.10;99.90;;;6.76;54.13;97213.16;5005440;28;20052;-61
2022/12/04 07:11:44;;;;;;;23.40;13.80;;;3.10;99.90;;;6.80;54.30;97217.16;5004490;28;20046;-60
2022/12/04 07:14:12;;;;;;;28.20;15.70;;;3.20;99.90;;;6.81;54.65;97214.38;5004757;28;20244;-59
2022/12/04 07:16:41;;;;;;;33.13;16.17;;;3.20;99.90;;;6.82;54.39;97220.50;5005480;28;20052;-60
2022/12/04 07:19:12;;;;;;;33.93;16.43;;;3.20;99.90;;;6.80;54.66;97220.63;5005172;28;20043;-60
2022/12/04 07:21:41;;;;;;;32.70;17.20;;;3.10;99.90;;;6.79;55.03;97216.34;5005222;28;20046;-53
2022/12/04 07:24:16;;;;;;;27.23;15.57;;;3.10;99.90;;;6.80;54.88;97222.47;5005515;28;20233;-54
2022/12/04 07:26:44;;;;;;;28.87;14.83;;;3.20;99.90;;;6.79;54.87;97219.00;5005326;28;20046;-53
2022/12/04 07:29:13;;;;;;;30.53;16.00;;;3.10;99.90;;;6.81;54.76;97216.22;5003470;28;20046;-54
2022/12/04 07:31:43;;;;;;;32.93;17.53;;;3.20;99.90;;;6.83;54.87;97201.84;4988231;28;20045;-56
2022/12/04 07:34:11;;;;;;;33.80;16.83;;;3.20;99.90;;;6.83;54.37;97204.47;5005616;28;20268;-52
2022/12/04 07:36:39;;;;;;;29.53;15.43;;;3.20;99.90;;;6.80;54.93;97214.53;5005204;28;20047;-55
2022/12/04 07:39:07;;;;;;;27.77;14.23;;;3.20;99.90;;;6.79;54.25;97212.88;5003792;28;20043;-55
2022/12/04 07:41:35;;;;;;;31.37;16.20;;;3.20;99.90;;;6.78;54.63;97212.03;5002651;28;20064;-54
2022/12/04 07:44:06;;;;;;;22.17;13.20;;;3.20;99.90;;;6.80;54.54;97209.22;5002890;28;20046;-53
2022/12/04 07:46:34;;;;;;;26.57;15.30;;;3.10;99.90;;;6.80;54.26;97212.69;5019363;28;20058;-56
2022/12/04 07:49:02;;;;;;;25.47;14.50;;;3.10;99.90;;;6.82;54.26;97204.63;5003161;28;20222;-53
2022/12/04 07:51:30;;;;;;;25.87;13.37;;;3.10;99.90;;;6.83;54.29;97206.31;5004024;28;20206;-53
2022/12/04 07:53:58;;;;;;;28.83;15.23;;;3.10;99.90;;;6.83;54.15;97215.06;5003091;28;20046;-53
2022/12/04 07:56:32;;;;;;;31.10;16.60;;;3.10;99.90;;;6.84;54.51;97216.75;5003890;28;20367;-54
2022/12/04 07:59:00;;;;;;;31.97;17.03;;;3.20;99.90;;;6.84;54.62;97213.25;5002684;28;20042;-56
2022/12/04 08:01:29;;;;;;;28.33;15.93;;;3.20;99.90;;;6.85;55.01;97225.50;5003706;28;20256;-53
2022/12/04 08:03:59;;;;;;;28.67;15.47;;;3.20;99.90;;;6.85;54.45;97230.81;5004160;28;20042;-52
2022/12/04 08:06:28;;;;;;;25.67;15.53;;;3.20;99.90;;;6.86;54.69;97228.00;5002658;28;20052;-53
2022/12/04 08:08:56;;;;;;;28.30;18.40;;;3.20;99.90;;;6.88;54.60;97233.13;5002200;28;20053;-51
2022/12/04 08:11:27;;;;;;;27.00;16.87;;;3.20;99.90;;;6.90;54.38;97223.22;5003340;28;20057;-52
2022/12/04 08:13:58;;;;;;;28.37;15.33;;;3.20;99.90;;;6.90;54.90;97225.88;5003524;28;20042;-53
2022/12/04 08:16:29;;;;;;;28.33;14.83;;;3.30;99.90;;;6.93;54.64;97219.47;5003555;28;20061;-55
2022/12/04 08:18:57;;;;;;;30.77;16.07;;;3.20;99.90;;;6.90;54.45;97223.22;5003515;28;20266;-54
2022/12/04 08:21:28;;;;;;;28.60;15.10;;;3.20;99.90;;;6.89;54.37;97219.75;5001553;28;20046;-52
2022/12/04 08:23:58;;;;;;;29.37;14.63;;;3.20;99.90;;;6.90;54.75;97220.59;5002375;28;20053;-56
2022/12/04 08:26:28;;;;;;;26.27;14.87;;;3.20;99.90;;;6.89;54.44;97225.06;5001943;28;20238;-51
2022/12/04 08:28:57;;;;;;;25.53;15.10;;;3.20;99.90;;;6.86;54.16;97222.72;5010694;28;20256;-54
2022/12/04 08:31:28;;;;;;;24.03;13.03;;;3.20;99.90;;;6.90;54.66;97223.22;5002976;28;20050;-56
2022/12/04 08:33:58;;;;;;;22.57;11.90;;;3.20;99.90;;;6.92;55.06;97223.09;5002874;28;20054;-56
2022/12/04 08:36:27;;;;;;;23.40;12.07;;;3.20;99.90;;;6.92;54.88;97220.44;5018258;28;20353;-55
2022/12/04 08:38:55;;;;;;;23.17;12.50;;;3.20;99.90;;;6.94;54.40;97221.13;5003363;28;20051;-55
2022/12/04 08:41:25;;;;;;;21.33;12.57;;;3.30;99.90;;;6.95;54.16;97226.28;5001572;28;20044;-55
2022/12/04 08:43:54;;;;;;;18.97;11.03;;;3.30;99.90;;;6.94;54.39;97221.97;4993877;28;20226;-55
2022/12/04 08:46:25;;;;;;;21.70;11.63;;;3.20;99.90;;;6.95;54.72;97223.63;4985230;28;20057;-57
2022/12/04 08:48:55;;;;;;;21.67;11.17;;;3.30;99.90;;;6.96;54.77;97227.09;4995119;28;20050;-55
2022/12/04 08:51:29;;;;;;;21.47;11.43;;;3.30;99.90;;;6.97;54.40;97232.25;5001437;28;20047;-57
2022/12/04 08:54:01;;;;;;;20.03;11.40;;;3.40;99.90;;;6.99;54.75;97234.75;5001671;28;20278;-54
2022/12/04 08:56:31;;;;;;;22.43;11.07;;;3.40;99.90;;;7.00;54.01;97241.69;5001608;28;20360;-56
2022/12/04 08:59:00;;;;;;;23.20;12.23;;;3.30;99.90;;;6.98;54.51;97244.53;5001546;28;20428;-57
2022/12/04 09:01:28;;;;;;;23.60;11.33;;;3.30;99.90;;;6.97;54.29;97245.47;5000147;28;20042;-55
2022/12/04 09:03:57;;;;;;;24.47;11.67;;;3.30;99.90;;;6.98;54.30;97248.94;5002783;28;20064;-53
2022/12/04 09:06:25;;;;;;;22.20;11.40;;;3.30;99.90;;;6.98;54.38;97251.59;5001975;28;20054;-56
2022/12/04 09:08:56;;;;;;;20.73;12.80;;;3.30;99.90;;;6.97;54.16;97261.38;4995131;28;20054;-55
2022/12/04 09:11:26;;;;;;;23.33;12.50;;;3.30;99.90;;;6.97;54.81;97258.72;5002175;28;20057;-52
2022/12/04 09:13:55;;;;;;;24.80;12.63;;;3.30;99.90;;;6.97;54.10;97264.00;4994707;28;20078;-55
2022/12/04 09:16:24;;;;;;;29.40;14.33;;;3.30;99.90;;;6.98;54.80;97256.91;5003144;28;20038;-53
2022/12/04 09:19:18;;;;;;;23.57;12.93;;;3.30;99.90;;;6.93;54.96;97256.53;4995205;28;20042;-54
2022/12/04 09:21:46;;;;;;;20.43;13.73;;;3.30;99.90;;;6.93;54.95;97261.81;5002317;28;20046;-55
2022/12/04 09:24:14;;;;;;;21.23;11.93;;;3.30;99.90;;;6.90;54.84;97265.56;5002036;28;20042;-54
2022/12/04 09:26:42;;;;;;;21.03;12.10;;;3.20;99.90;;;6.89;54.75;97267.41;5001310;28;20060;-55
2022/12/04 09:29:11;;;;;;;21.33;12.40;;;3.20;99.90;;;6.92;55.03;97268.06;5002506;28;20068;-52
2022/12/04 09:31:39;;;;;;;23.10;13.97;;;3.30;99.90;;;6.95;54.14;97254.56;5002269;28;20050;-51
2022/12/04 09:34:07;;;;;;;21.17;13.50;;;3.30;99.90;;;6.96;54.79;97254.41;5002999;28;20065;-53
2022/12/04 09:36:36;;;;;;;24.67;14.27;;;3.30;99.90;;;7.01;55.17;97244.19;5002816;28;20249;-55
2022/12/04 09:39:04;;;;;;;24.93;14.63;;;3.40;99.90;;;7.03;54.51;97241.41;5001541;28;20057;-56
2022/12/04 09:42:13;;;;;;;21.47;12.33;;;3.40;99.90;;;7.04;54.71;97238.63;5002574;28;20042;-54
2022/12/04 09:44:52;;;;;;;24.60;12.33;;;3.40;99.90;;;7.08;54.66;97233.88;5002160;28;20059;-54
2022/12/04 09:47:52;;;;;;;19.90;11.57;;;3.40;99.90;;;7.08;54.30;97223.28;5001568;28;20431;-54
2022/12/04 09:50:26;;;;;;;20.93;12.07;;;3.40;99.90;;;7.11;54.72;97220.31;4991848;28;20058;-54
2022/12/04 09:53:20;;;;;;;29.80;14.13;;;3.40;99.90;;;7.08;54.18;97212.69;5001571;28;20042;-54
2022/12/04 09:55:57;;;;;;;23.17;12.53;;;3.40;99.90;;;7.12;54.26;97213.22;5001468;28;20058;-54
2022/12/04 09:58:35;;;;;;;24.40;12.77;;;3.50;99.90;;;7.10;54.78;97202.78;5001677;28;20050;-55
2022/12/04 10:01:03;;;;;;;22.33;12.00;;;3.50;99.90;;;7.12;54.31;97200.00;5001088;28;20038;-56
2022/12/04 10:03:32;;;;;;;24.23;11.83;;;3.50;99.90;;;7.12;54.13;97205.28;5002200;28;20062;-54
2022/12/04 10:06:18;;;;;;;24.00;11.80;;;3.50;99.90;;;7.12;54.69;97187.59;5001380;28;20049;-54
2022/12/04 10:09:00;;;;;;;19.80;11.03;;;3.50;99.90;;;7.08;54.59;97183.56;5002344;28;20256;-55
2022/12/04 10:12:06;;;;;;;25.60;12.57;;;3.60;99.90;;;7.06;54.84;97182.91;5000970;28;20042;-56
2022/12/04 10:14:59;;;;;;;21.87;11.80;;;3.60;99.90;;;7.05;54.59;97175.94;4998708;28;20054;-52
2022/12/04 10:17:36;;;;;;;26.23;12.27;;;3.60;99.20;;;7.06;54.79;97172.31;5001611;28;20296;-55
2022/12/04 10:20:18;;;;;;;22.80;11.27;;;3.60;99.90;;;7.09;54.44;97172.00;4993585;28;20353;-55
2022/12/04 10:23:17;;;;;;;21.80;10.23;;;3.60;99.10;;;7.08;54.38;97167.69;5001858;28;20046;-55
2022/12/04 10:25:45;;;;;;;35.93;20.67;;;3.60;99.40;;;7.14;54.65;97174.19;5001991;28;20117;-56
2022/12/04 10:28:39;;;;;;;28.23;14.37;;;3.60;99.70;;;7.13;54.80;97167.22;5001167;28;20046;-55
2022/12/04 10:31:13;;;;;;;31.80;17.77;;;3.60;99.90;;;7.16;54.35;97166.94;5000632;28;20065;-53
2022/12/04 10:33:54;;;;;;;29.10;15.60;;;3.60;99.50;;;7.18;54.27;97168.44;5000972;28;20050;-54
2022/12/04 10:36:29;;;;;;;24.03;11.87;;;3.60;99.80;;;7.17;54.31;97169.41;5002079;28;20355;-55
2022/12/04 10:39:20;;;;;;;31.77;15.50;;;3.60;98.60;;;7.14;54.32;97163.63;4992912;28;20040;-54
2022/12/04 10:42:09;;;;;;;26.87;13.47;;;3.60;99.30;;;7.14;54.62;97158.31;4999525;28;20069;-55
2022/12/04 10:44:38;;;;;;;21.03;11.57;;;3.60;99.70;;;7.15;54.18;97165.25;5001136;28;20046;-54
2022/12/04 10:47:07;;;;;;;31.17;14.67;;;3.60;99.40;;;7.14;53.99;97161.78;5000943;28;20052;-54
2022/12/04 10:49:36;;;;;;;25.07;14.33;;;3.50;99.20;;;7.14;54.63;97169.72;5000361;28;20054;-54
2022/12/04 10:52:09;;;;;;;24.53;12.73;;;3.60;99.10;;;7.15;53.95;97171.38;5000976;28;20042;-52
2022/12/04 10:54:53;;;;;;;24.87;13.73;;;3.50;99.30;;;7.12;54.50;97178.81;5001742;28;20050;-54
2022/12/04 10:57:21;;;;;;;31.17;16.17;;;3.50;99.80;;;7.15;54.47;97192.56;4999981;28;20052;-55
2022/12/04 10:59:55;;;;;;;28.60;14.80;;;3.50;99.80;;;7.18;54.03;97189.63;5000152;28;20047;-53
2022/12/04 11:02:26;;;;;;;23.87;13.23;;;3.50;99.60;;;7.16;54.58;97188.94;5000808;28;20047;-54
2022/12/04 11:05:02;;;;;;;23.70;12.30;;;3.60;99.90;;;7.16;54.56;97182.81;5001897;28;20057;-56
2022/12/04 11:07:55;;;;;;;20.83;10.87;;;3.60;99.80;;;7.13;54.76;97191.06;5000800;28;20108;-56